createdAt,value
2019-02-08T00:00:45.373Z,16.97
2019-02-08T00:03:14.973Z,16.25
2019-02-08T00:05:44.720Z,16.40
2019-02-08T00:08:14.339Z,17.12
2019-02-08T00:10:43.958Z,18.67
2019-02-08T00:13:13.870Z,18.50
2019-02-08T00:15:43.637Z,18.92
2019-02-08T00:18:13.435Z,18.12
2019-02-08T00:20:42.956Z,18.92
2019-02-08T00:23:12.867Z,18.82
2019-02-08T00:25:42.399Z,18.70
2019-02-08T00:28:11.986Z,19.98
2019-02-08T00:30:41.710Z,18.57
2019-02-08T00:33:11.269Z,20.23
2019-02-08T00:35:41.059Z,20.80
2019-02-08T00:38:10.710Z,31.12
2019-02-08T00:40:40.173Z,29.92
2019-02-08T00:43:11.530Z,30.37
2019-02-08T00:45:41.010Z,29.75
2019-02-08T00:48:10.688Z,32.60
2019-02-08T00:50:39.980Z,30.27
2019-02-08T00:53:09.655Z,33.75
2019-02-08T00:55:39.498Z,24.02
2019-02-08T00:58:09.244Z,21.90
2019-02-08T01:00:39.120Z,22.10
2019-02-08T01:03:08.818Z,21.60
2019-02-08T01:05:38.708Z,24.55
2019-02-08T01:08:08.512Z,20.08
2019-02-08T01:10:38.121Z,20.40
2019-02-08T01:13:08.197Z,18.02
2019-02-08T01:15:38.019Z,18.17
2019-02-08T01:18:07.581Z,18.42
2019-02-08T01:20:37.338Z,18.52
2019-02-08T01:23:06.975Z,18.30
2019-02-08T01:25:36.540Z,17.48
2019-02-08T01:28:06.328Z,18.95
2019-02-08T01:30:36.208Z,18.02
2019-02-08T01:33:05.824Z,18.15
2019-02-08T01:35:35.536Z,17.92
2019-02-08T01:38:05.300Z,19.57
2019-02-08T01:40:36.812Z,18.52
2019-02-08T01:43:06.976Z,18.75
2019-02-08T01:45:36.987Z,16.48
2019-02-08T01:48:07.072Z,18.37
2019-02-08T01:50:36.906Z,17.52
2019-02-08T01:53:06.692Z,18.95
2019-02-08T01:55:36.398Z,16.30
2019-02-08T01:58:06.502Z,17.23
2019-02-08T02:00:38.743Z,17.92
2019-02-08T02:03:09.627Z,18.07
2019-02-08T02:05:39.291Z,17.02
2019-02-08T02:08:08.932Z,16.52
2019-02-08T02:10:41.076Z,17.55
2019-02-08T02:13:11.035Z,17.23
2019-02-08T02:15:41.032Z,17.48
2019-02-08T02:18:11.113Z,18.57
2019-02-08T02:20:41.593Z,23.73
2019-02-08T02:23:13.127Z,25.92
2019-02-08T02:25:42.857Z,22.05
2019-02-08T02:28:12.721Z,24.70
2019-02-08T02:30:42.431Z,31.02
2019-02-08T02:33:12.801Z,22.65
2019-02-08T02:35:42.413Z,21.15
2019-02-08T02:38:12.218Z,19.50
2019-02-08T02:40:41.704Z,20.62
2019-02-08T02:43:11.275Z,19.92
2019-02-08T02:45:41.459Z,22.50
2019-02-08T02:48:12.831Z,20.32
2019-02-08T02:50:42.474Z,19.52
2019-02-08T02:53:12.182Z,18.35
2019-02-08T02:55:41.823Z,18.10
2019-02-08T02:58:11.641Z,40.75
2019-02-08T03:00:43.282Z,30.17
2019-02-08T03:03:14.003Z,29.77
2019-02-08T03:05:43.689Z,25.40
2019-02-08T03:08:14.277Z,27.95
2019-02-08T03:10:44.073Z,24.80
2019-02-08T03:13:13.895Z,20.25
2019-02-08T03:15:43.533Z,18.12
2019-02-08T03:18:13.245Z,17.25
2019-02-08T03:20:42.860Z,56.77
2019-02-08T03:23:12.617Z,24.25
2019-02-08T03:25:42.264Z,18.45
2019-02-08T03:28:11.735Z,15.50
2019-02-08T03:30:47.211Z,15.13
2019-02-08T03:33:16.854Z,14.40
2019-02-08T03:35:46.375Z,15.40
2019-02-08T03:38:16.190Z,15.18
2019-02-08T03:40:45.938Z,15.00
2019-02-08T03:43:15.618Z,15.25
2019-02-08T03:45:45.657Z,13.70
2019-02-08T03:48:15.343Z,14.30
2019-02-08T03:50:44.879Z,12.73
2019-02-08T03:53:14.515Z,13.32
2019-02-08T03:55:44.225Z,12.80
2019-02-08T03:58:13.912Z,12.88
2019-02-08T04:00:47.650Z,14.10
2019-02-08T04:03:17.271Z,13.90
2019-02-08T04:05:47.067Z,13.45
2019-02-08T04:08:16.771Z,13.75
2019-02-08T04:10:46.262Z,14.10
2019-02-08T04:13:15.887Z,14.53
2019-02-08T04:15:45.599Z,14.87
2019-02-08T04:18:15.282Z,14.43
2019-02-08T04:20:44.973Z,15.50
2019-02-08T04:23:14.627Z,15.03
2019-02-08T04:25:44.288Z,21.30
2019-02-08T04:28:13.998Z,20.80
2019-02-08T04:30:43.730Z,18.73
2019-02-08T04:33:13.307Z,31.87
2019-02-08T04:35:42.909Z,55.98
2019-02-08T04:38:12.484Z,23.73
2019-02-08T04:40:42.209Z,14.47
2019-02-08T04:43:11.852Z,16.02
2019-02-08T04:45:41.690Z,13.35
2019-02-08T04:48:11.264Z,20.82
2019-02-08T04:50:41.003Z,23.45
2019-02-08T04:53:10.639Z,13.95
2019-02-08T04:55:40.306Z,18.60
2019-02-08T04:58:09.933Z,13.50
2019-02-08T05:00:39.610Z,16.37
2019-02-08T05:03:09.433Z,15.18
2019-02-08T05:05:39.132Z,12.63
2019-02-08T05:08:09.107Z,11.25
2019-02-08T05:10:38.615Z,11.15
2019-02-08T05:13:08.274Z,11.35
2019-02-08T05:15:38.164Z,12.47
2019-02-08T05:18:07.847Z,11.25
2019-02-08T05:20:37.583Z,12.03
2019-02-08T05:23:07.356Z,12.13
2019-02-08T05:25:36.935Z,13.08
2019-02-08T05:28:06.467Z,13.18
2019-02-08T05:30:36.524Z,13.88
2019-02-08T05:33:06.489Z,13.80
2019-02-08T05:35:36.034Z,15.80
2019-02-08T05:38:05.788Z,21.60
2019-02-08T05:40:35.584Z,18.95
2019-02-08T05:43:05.530Z,14.63
2019-02-08T05:45:35.124Z,14.73
2019-02-08T05:48:05.350Z,12.73
2019-02-08T05:50:35.154Z,14.93
2019-02-08T05:53:04.804Z,30.50
2019-02-08T05:55:34.546Z,83.22
2019-02-08T05:58:04.290Z,17.75
2019-02-08T06:00:40.396Z,17.55
2019-02-08T06:03:10.842Z,12.47
2019-02-08T06:05:40.457Z,11.60
2019-02-08T06:08:10.227Z,12.50
2019-02-08T06:10:39.576Z,14.25
2019-02-08T06:13:09.491Z,13.20
2019-02-08T06:15:39.123Z,12.50
2019-02-08T06:18:09.672Z,12.45
2019-02-08T06:20:40.083Z,13.15
2019-02-08T06:23:09.711Z,14.95
2019-02-08T06:25:39.508Z,13.90
2019-02-08T06:28:09.411Z,12.82
2019-02-08T06:30:39.185Z,17.32
2019-02-08T06:33:09.038Z,15.35
2019-02-08T06:35:38.862Z,13.55
2019-02-08T06:38:08.586Z,13.75
2019-02-08T06:40:40.698Z,15.15
2019-02-08T06:43:10.451Z,14.13
2019-02-08T06:45:41.218Z,16.27
2019-02-08T06:48:12.355Z,15.75
2019-02-08T06:50:42.273Z,15.60
2019-02-08T06:53:12.013Z,16.23
2019-02-08T06:55:41.670Z,15.30
2019-02-08T06:58:19.259Z,15.83
2019-02-08T07:00:56.832Z,15.15
2019-02-08T07:03:40.547Z,15.05
2019-02-08T07:06:47.539Z,15.75
2019-02-08T07:09:53.946Z,15.98
2019-02-08T07:12:36.911Z,15.53
2019-02-08T07:15:13.559Z,16.62
2019-02-08T07:19:50.918Z,16.48
2019-02-08T07:22:25.786Z,15.13
2019-02-08T07:24:59.450Z,17.45
2019-02-08T07:27:36.214Z,18.07
2019-02-08T07:30:24.775Z,19.42
2019-02-08T07:33:01.580Z,18.60
2019-02-08T07:36:35.276Z,18.75
2019-02-08T07:39:19.447Z,19.25
2019-02-08T07:41:57.585Z,19.52
2019-02-08T07:44:48.559Z,19.27
2019-02-08T07:47:37.419Z,19.35
2019-02-08T07:50:39.015Z,19.37
2019-02-08T07:53:14.154Z,21.27
2019-02-08T07:55:48.691Z,22.98
2019-02-08T07:58:25.310Z,23.45
2019-02-08T08:01:03.192Z,25.25
2019-02-08T08:04:37.659Z,24.67
2019-02-08T08:09:19.242Z,24.15
2019-02-08T08:12:02.343Z,24.98
2019-02-08T08:14:57.043Z,24.67
2019-02-08T08:18:31.019Z,27.60
2019-02-08T08:21:20.149Z,29.07
2019-02-08T08:23:55.677Z,29.30
2019-02-08T08:26:30.539Z,32.17
2019-02-08T08:29:09.639Z,37.33
2019-02-08T08:31:51.095Z,36.10
2019-02-08T08:34:39.954Z,33.83
2019-02-08T08:37:54.344Z,36.03
2019-02-08T08:42:56.652Z,37.08
2019-02-08T08:45:41.116Z,32.45
2019-02-08T08:48:23.822Z,31.52
2019-02-08T08:51:11.338Z,27.32
2019-02-08T08:55:57.332Z,24.10
2019-02-08T09:00:40.481Z,20.92
2019-02-08T09:06:21.904Z,20.77
2019-02-08T09:09:43.652Z,20.85
2019-02-08T09:13:26.435Z,21.85
2019-02-08T09:16:46.018Z,22.95
2019-02-08T09:21:32.044Z,24.90
2019-02-08T09:24:17.431Z,22.85
2019-02-08T09:27:03.724Z,23.70
2019-02-08T09:31:47.585Z,23.65
2019-02-08T09:34:35.936Z,26.75
2019-02-08T09:39:25.276Z,24.85
2019-02-08T09:42:16.371Z,25.05
2019-02-08T09:45:05.044Z,24.37
2019-02-08T09:47:50.895Z,24.55
2019-02-08T09:53:41.690Z,26.12
2019-02-08T09:58:57.809Z,26.12
2019-02-08T10:01:38.903Z,24.00
2019-02-08T10:04:33.483Z,26.15
2019-02-08T10:07:21.920Z,24.67
2019-02-08T10:10:12.369Z,25.37
2019-02-08T10:12:55.374Z,25.00
2019-02-08T10:16:44.316Z,24.43
2019-02-08T10:20:13.270Z,25.90
2019-02-08T10:25:01.091Z,20.80
2019-02-08T10:27:41.155Z,18.60
2019-02-08T10:32:29.104Z,21.12
2019-02-08T10:35:41.648Z,21.17
2019-02-08T10:41:30.265Z,21.85
2019-02-08T10:45:07.748Z,23.38
2019-02-08T10:47:48.304Z,25.30
2019-02-08T10:50:28.753Z,24.57
2019-02-08T10:53:09.295Z,24.72
2019-02-08T10:55:59.898Z,25.70
2019-02-08T11:00:50.191Z,25.30
2019-02-08T11:03:33.196Z,22.55
2019-02-08T11:06:13.755Z,22.42
2019-02-08T11:11:09.943Z,22.60
2019-02-08T11:13:55.666Z,22.85
2019-02-08T11:16:37.697Z,21.15
2019-02-08T11:19:18.918Z,20.12
2019-02-08T11:21:49.920Z,20.55
2019-02-08T11:24:22.610Z,20.00
2019-02-08T11:26:52.409Z,18.98
2019-02-08T11:29:22.206Z,20.52
2019-02-08T11:31:52.102Z,21.45
2019-02-08T11:34:21.957Z,22.87
2019-02-08T11:36:51.445Z,20.32
2019-02-08T11:39:21.153Z,19.82
2019-02-08T11:41:51.328Z,20.52
2019-02-08T11:44:22.029Z,19.73
2019-02-08T11:46:51.571Z,19.15
2019-02-08T11:49:21.062Z,22.10
2019-02-08T11:51:50.608Z,21.42
2019-02-08T11:54:19.996Z,21.85
2019-02-08T11:56:50.481Z,21.37
2019-02-08T11:59:20.418Z,20.35
2019-02-08T12:01:50.802Z,20.50
2019-02-08T12:04:20.674Z,22.30
2019-02-08T12:06:50.633Z,19.60
2019-02-08T12:09:20.287Z,18.48
2019-02-08T12:11:50.006Z,18.90
2019-02-08T12:14:19.572Z,17.42
2019-02-08T12:16:49.192Z,18.87
2019-02-08T12:19:18.854Z,16.15
2019-02-08T12:21:48.634Z,15.53
2019-02-08T12:24:18.329Z,17.40
2019-02-08T12:26:47.831Z,16.77
2019-02-08T12:29:17.655Z,17.17
2019-02-08T12:31:47.370Z,17.90
2019-02-08T12:34:17.058Z,21.85
2019-02-08T12:36:46.813Z,33.18
2019-02-08T12:39:16.371Z,58.15
2019-02-08T12:41:45.865Z,43.15
2019-02-08T12:44:15.725Z,34.90
2019-02-08T12:46:45.408Z,23.15
2019-02-08T12:49:15.123Z,25.62
2019-02-08T12:51:44.912Z,29.87
2019-02-08T12:54:14.653Z,27.15
2019-02-08T12:56:45.679Z,24.95
2019-02-08T12:59:14.182Z,21.57
2019-02-08T13:01:43.674Z,21.95
2019-02-08T13:04:13.299Z,22.52
2019-02-08T13:06:43.289Z,20.68
2019-02-08T13:09:13.315Z,17.35
2019-02-08T13:11:43.025Z,16.60
2019-02-08T13:14:12.668Z,15.32
2019-02-08T13:16:42.344Z,14.28
2019-02-08T13:19:11.962Z,15.65
2019-02-08T13:21:41.623Z,15.50
2019-02-08T13:24:11.220Z,16.87
2019-02-08T13:26:40.886Z,17.02
2019-02-08T13:29:10.427Z,15.28
2019-02-08T13:31:39.979Z,11.40
2019-02-08T13:34:09.628Z,12.60
2019-02-08T13:36:39.314Z,13.55
2019-02-08T13:39:09.787Z,13.75
2019-02-08T13:41:39.373Z,13.35
2019-02-08T13:44:08.959Z,12.65
2019-02-08T13:46:38.655Z,11.05
2019-02-08T13:49:08.363Z,11.75
2019-02-08T13:51:37.970Z,12.80
2019-02-08T13:54:07.802Z,13.13
2019-02-08T13:56:37.405Z,13.98
2019-02-08T13:59:07.304Z,14.40
2019-02-08T14:01:36.850Z,14.60
2019-02-08T14:04:06.558Z,14.43
2019-02-08T14:06:36.318Z,14.15
2019-02-08T14:09:08.689Z,15.88
2019-02-08T14:11:38.622Z,18.55
2019-02-08T14:14:08.376Z,19.65
2019-02-08T14:16:38.103Z,18.95
2019-02-08T14:19:08.164Z,20.40
2019-02-08T14:21:37.793Z,18.48
2019-02-08T14:24:07.421Z,19.20
2019-02-08T14:26:37.031Z,15.75
2019-02-08T14:29:07.625Z,13.88
2019-02-08T14:31:37.248Z,14.30
2019-02-08T14:34:06.995Z,15.53
2019-02-08T14:36:36.577Z,15.13
2019-02-08T14:39:09.253Z,16.27
2019-02-08T14:41:38.810Z,16.90
2019-02-08T14:44:08.500Z,15.40
2019-02-08T14:46:38.007Z,16.10
2019-02-08T14:49:07.734Z,15.55
2019-02-08T14:51:37.340Z,14.18
2019-02-08T14:54:07.132Z,15.25
2019-02-08T14:56:36.707Z,14.63
2019-02-08T14:59:06.315Z,15.72
2019-02-08T15:01:35.947Z,14.05
2019-02-08T15:04:07.462Z,14.43
2019-02-08T15:06:35.386Z,12.90
2019-02-08T15:09:08.840Z,14.35
2019-02-08T15:11:38.583Z,15.32
2019-02-08T15:14:08.315Z,14.10
2019-02-08T15:16:37.887Z,13.35
2019-02-08T15:19:07.593Z,12.90
2019-02-08T15:21:37.214Z,12.37
2019-02-08T15:24:07.224Z,12.15
2019-02-08T15:26:36.777Z,13.80
2019-02-08T15:29:06.389Z,14.80
2019-02-08T15:31:36.819Z,16.17
2019-02-08T15:34:06.324Z,16.12
2019-02-08T15:36:35.955Z,16.45
2019-02-08T15:39:09.163Z,18.77
2019-02-08T15:41:38.819Z,18.32
2019-02-08T15:44:08.410Z,22.10
2019-02-08T16:04:01.359Z,27.40
2019-02-08T16:06:30.959Z,21.45
2019-02-08T16:09:00.424Z,28.47
2019-02-08T16:11:29.806Z,26.05
2019-02-08T16:13:59.394Z,25.43
2019-02-08T16:16:29.085Z,20.52
2019-02-08T16:18:58.730Z,20.72
2019-02-08T16:38:52.067Z,9.85
2019-02-08T16:41:21.888Z,10.68
2019-02-08T16:43:51.692Z,11.30
2019-02-08T16:46:21.267Z,9.88
2019-02-08T16:48:50.864Z,11.12
2019-02-08T16:51:20.388Z,13.08
2019-02-08T16:53:53.516Z,15.65
2019-02-08T16:56:19.738Z,14.25
2019-02-08T16:58:49.300Z,13.95
2019-02-08T17:01:18.846Z,13.75
2019-02-08T17:03:48.619Z,14.18
2019-02-08T17:06:19.248Z,14.65
2019-02-08T17:08:48.826Z,12.15
2019-02-08T17:11:18.324Z,13.03
2019-02-08T17:13:47.932Z,17.95
2019-02-08T17:50:58.655Z,13.78
2019-02-08T17:53:28.239Z,13.68
2019-02-08T18:13:20.431Z,15.18
2019-02-08T18:15:50.048Z,15.00
2019-02-08T18:35:42.988Z,14.80
2019-02-08T18:38:13.066Z,13.38
2019-02-08T18:40:42.759Z,13.95
2019-02-08T19:00:40.014Z,18.75
2019-02-08T19:03:04.843Z,15.83
2019-02-08T19:05:34.411Z,16.75
2019-02-08T19:08:04.148Z,16.85
2019-02-08T19:10:33.808Z,16.02
2019-02-08T19:13:03.532Z,16.57
2019-02-08T19:15:33.302Z,14.25
2019-02-08T19:18:02.972Z,13.38
2019-02-08T19:37:55.392Z,22.27
2019-02-08T19:40:27.578Z,15.78
2019-02-08T19:42:57.443Z,14.87
2019-02-08T19:45:27.033Z,15.00
2019-02-08T19:47:56.655Z,15.20
2019-02-08T19:50:29.073Z,14.80
2019-02-08T20:10:23.371Z,29.80
2019-02-08T20:12:54.292Z,34.00
2019-02-08T20:15:22.579Z,27.62
2019-02-08T20:35:15.756Z,16.95
2019-02-08T20:37:45.294Z,16.17
2019-02-08T20:40:17.526Z,16.90
2019-02-08T20:42:47.243Z,15.43
2019-02-08T20:45:20.704Z,21.35
2019-02-08T20:47:51.109Z,16.65
2019-02-08T21:07:43.188Z,13.72
2019-02-08T21:10:12.953Z,13.03
2019-02-08T21:12:42.667Z,13.75
2019-02-08T21:15:12.892Z,13.90
2019-02-08T21:17:42.549Z,14.85
2019-02-08T21:20:12.216Z,15.60
2019-02-08T21:22:42.053Z,14.80
2019-02-08T21:25:12.932Z,17.02
2019-02-08T21:27:42.770Z,16.27
2019-02-08T21:30:13.620Z,16.75
2019-02-08T21:32:43.579Z,19.55
2019-02-08T21:35:13.308Z,19.27
2019-02-08T21:37:42.824Z,18.65
2019-02-08T21:40:13.632Z,21.97
2019-02-08T21:42:43.412Z,20.45
2019-02-08T21:45:16.551Z,20.77
2019-02-08T21:47:46.442Z,22.60
2019-02-08T21:50:17.141Z,24.00
2019-02-08T21:52:46.782Z,23.87
2019-02-08T21:55:17.232Z,22.82
2019-02-08T21:57:46.780Z,23.25
2019-02-08T22:00:18.330Z,23.30
2019-02-08T22:02:48.032Z,53.23
2019-02-08T22:05:18.344Z,36.65
2019-02-08T22:07:48.000Z,29.50
2019-02-08T22:10:17.657Z,46.28
2019-02-08T22:12:48.374Z,28.65
2019-02-08T22:15:20.222Z,20.30
2019-02-08T22:17:49.889Z,19.55
2019-02-08T22:20:19.541Z,16.75
2019-02-08T22:22:49.345Z,19.35
2019-02-08T22:25:19.745Z,17.42
2019-02-08T22:27:50.407Z,16.02
2019-02-08T22:30:21.664Z,17.67
2019-02-08T22:32:52.413Z,23.62
2019-02-08T22:52:44.441Z,20.77
2019-02-08T22:55:16.107Z,22.13
2019-02-08T22:57:45.711Z,21.02
2019-02-08T23:00:26.583Z,22.17
2019-02-08T23:02:56.318Z,20.50
2019-02-08T23:05:26.065Z,20.97
2019-02-08T23:25:18.247Z,22.22
2019-02-08T23:27:48.116Z,20.48
2019-02-08T23:47:40.139Z,12.65
2019-02-08T23:50:10.108Z,13.13
2019-02-08T23:52:39.712Z,12.95
2019-02-08T23:55:09.442Z,12.40
2019-02-08T23:57:39.031Z,12.68
